TLPL/UVF METAR and TAF weather

Enter ICAO airport designator
Station Type Date Time Source
TLPL METAR 2018/12/13 09:00 UTC NOAA

TLPL 130900Z 09018KT 9999 SCT024 26/22 Q1015 NOSIG


Station Type Date Time Source
TLPL Decoded METAR 2018/12/13 09:00 UTC NOAA

Hewanorra International Airport, Saint Lucia (TLPL) 13-45N 060-57W 10M
Dec 13, 2018 - 04:00 AM EST / 2018.12.13 0900 UTC
Wind: from the E (090 degrees) at 21 MPH (18 KT):0
Visibility: greater than 7 mile(s):0
Sky conditions: partly cloudy
Temperature: 78 F (26 C)
Dew Point: 71 F (22 C)
Relative Humidity: 78%
Pressure (altimeter): 29.97 in. Hg (1015 hPa)
ob: TLPL 130900Z 09018KT 9999 SCT024 26/22 Q1015 NOSIG
cycle: 9

Station Type Date Time Source
TLPL TAF 2018/12/13 06:03 UTC NOAA

TAF TLPL 130500Z 1306/1406 09016KT 9999 SCT024 PROB30
TEMPO 1306/1312 SHRA


Example: see airport list